Time;durP1;ratioP1;P1;durP2;ratioP2;P2;SDS_P1;SDS_P2;PMS_P1;PMS_P2;Temp;Humidity;BMP_temperature;BMP_pressure;BME280_temperature;BME280_humidity;BME280_pressure;Samples;Min_cycle;Max_cycle;Signal;HPM_P1;HPM_P2
2023/01/20 00:01:15;;;;;;;43.80;28.50;;;;;;;-1.00;100.00;100906.31;5049956;28;20036;-63
2023/01/20 00:03:41;;;;;;;47.80;29.27;;;;;;;-1.01;100.00;100904.50;5049173;28;20025;-63
2023/01/20 00:06:08;;;;;;;43.47;28.83;;;;;;;-1.01;100.00;100917.22;5049550;28;20564;-64
2023/01/20 00:08:33;;;;;;;47.77;29.27;;;;;;;-1.01;100.00;100914.69;5049467;28;20029;-63
2023/01/20 00:11:03;;;;;;;45.10;29.80;;;;;;;-1.03;100.00;100926.41;5051188;28;20024;-63
2023/01/20 00:13:28;;;;;;;47.13;28.90;;;;;;;-1.05;100.00;100927.94;5056801;28;20160;-63
2023/01/20 00:15:54;;;;;;;42.37;29.03;;;;;;;-1.07;100.00;100924.38;5048997;28;20533;-63
2023/01/20 00:18:19;;;;;;;46.37;29.50;;;;;;;-1.06;100.00;100925.28;5048663;28;20100;-63
2023/01/20 00:20:44;;;;;;;44.60;28.47;;;;;;;-1.05;100.00;100930.50;5048872;28;20036;-63
2023/01/20 00:23:09;;;;;;;49.63;31.10;;;;;;;-1.04;100.00;100927.16;5055794;28;20050;-63
2023/01/20 00:25:35;;;;;;;51.83;31.13;;;;;;;-1.05;100.00;100933.03;5062947;28;20054;-63
2023/01/20 00:28:01;;;;;;;48.20;28.70;;;;;;;-1.05;100.00;100935.56;5069078;28;20029;-63
2023/01/20 00:30:26;;;;;;;49.60;30.20;;;;;;;-1.06;100.00;100931.22;5060285;28;20032;-63
2023/01/20 00:32:51;;;;;;;50.50;30.40;;;;;;;-1.07;100.00;100944.72;5049573;28;20278;-63
2023/01/20 00:35:16;;;;;;;50.43;29.20;;;;;;;-1.09;100.00;100936.97;5048550;28;20021;-63
2023/01/20 00:37:42;;;;;;;46.27;29.40;;;;;;;-1.08;100.00;100942.97;5052293;28;20107;-63
2023/01/20 00:40:10;;;;;;;51.00;29.87;;;;;;;-1.10;100.00;100944.50;5048468;28;20033;-63
2023/01/20 00:42:35;;;;;;;45.57;27.93;;;;;;;-1.12;100.00;100941.84;5049194;28;20642;-63
2023/01/20 00:45:01;;;;;;;44.83;29.47;;;;;;;-1.12;100.00;100941.84;5055941;28;20403;-63
2023/01/20 00:47:26;;;;;;;45.60;27.83;;;;;;;-1.12;100.00;100941.84;5049387;28;20028;-63
2023/01/20 00:49:51;;;;;;;48.87;28.27;;;;;;;-1.10;100.00;100949.59;5050183;28;20040;-63
2023/01/20 00:52:19;;;;;;;46.07;28.20;;;;;;;-1.13;100.00;100945.13;5047754;28;20049;-63
2023/01/20 00:54:45;;;;;;;49.73;28.40;;;;;;;-1.13;100.00;100944.22;5051015;28;20021;-63
2023/01/20 00:57:11;;;;;;;44.23;28.23;;;;;;;-1.15;100.00;100950.88;5048365;28;20503;-63
2023/01/20 00:59:36;;;;;;;48.00;26.80;;;;;;;-1.17;100.00;100948.16;5048402;28;20473;-63
2023/01/20 01:02:02;;;;;;;46.17;27.63;;;;;;;-1.19;100.00;100943.75;5048022;28;20033;-63
2023/01/20 01:04:28;;;;;;;46.37;27.20;;;;;;;-1.22;100.00;100940.19;5048540;28;20040;-63
2023/01/20 01:06:53;;;;;;;55.00;28.90;;;;;;;-1.22;100.00;100949.44;5047501;28;20492;-64
2023/01/20 01:09:20;;;;;;;43.73;26.47;;;;;;;-1.22;100.00;100950.34;5048547;28;20448;-63
2023/01/20 01:11:46;;;;;;;52.47;28.87;;;;;;;-1.21;100.00;100956.34;5059973;28;20040;-63
2023/01/20 01:14:11;;;;;;;53.37;30.03;;;;;;;-1.23;100.00;100953.66;5049252;28;20079;-63
2023/01/20 01:16:36;;;;;;;53.40;29.27;;;;;;;-1.19;100.00;100956.47;5054506;28;20551;-63
2023/01/20 01:19:02;;;;;;;50.57;27.63;;;;;;;-1.21;100.00;100957.19;5048443;28;20113;-63
2023/01/20 01:21:27;;;;;;;48.70;27.33;;;;;;;-1.20;100.00;100958.09;5054818;28;20064;-63
2023/01/20 01:23:52;;;;;;;52.20;29.67;;;;;;;-1.18;100.00;100970.94;5047287;28;20504;-63
2023/01/20 01:26:18;;;;;;;56.17;29.97;;;;;;;-1.18;100.00;100965.84;5053497;28;20031;-63
2023/01/20 01:28:46;;;;;;;51.00;28.67;;;;;;;-1.19;100.00;100979.34;5051563;28;20605;-63
2023/01/20 01:31:11;;;;;;;55.17;30.73;;;;;;;-1.19;100.00;100979.34;5053832;28;20029;-63
2023/01/20 01:33:37;;;;;;;53.57;29.70;;;;;;;-1.19;100.00;100974.25;5047561;28;20426;-63
2023/01/20 01:36:03;;;;;;;59.87;29.87;;;;;;;-1.21;100.00;100980.09;5047411;28;20032;-63
2023/01/20 01:38:29;;;;;;;54.50;30.57;;;;;;;-1.21;100.00;100982.63;5054200;28;20093;-63
2023/01/20 01:40:55;;;;;;;50.77;27.97;;;;;;;-1.20;100.00;100981.00;5054649;28;20263;-63
2023/01/20 01:43:29;;;;;;;49.17;27.83;;;;;;;-1.21;100.00;100981.78;5047452;28;20448;-63
2023/01/20 01:45:55;;;;;;;47.23;27.30;;;;;;;-1.24;100.00;100987.47;5047640;28;20029;-63
2023/01/20 01:48:24;;;;;;;51.90;27.23;;;;;;;-1.28;100.00;100985.47;5047365;28;20025;-63
2023/01/20 01:51:02;;;;;;;51.57;27.90;;;;;;;-1.27;100.00;100986.34;5047421;28;20041;-63
2023/01/20 01:53:30;;;;;;;53.23;27.07;;;;;;;-1.26;100.00;100990.69;5047072;28;20020;-63
2023/01/20 01:56:00;;;;;;;52.77;26.50;;;;;;;-1.26;100.00;100994.09;5047472;28;20517;-63
2023/01/20 01:58:32;;;;;;;51.90;26.70;;;;;;;-1.24;100.00;101005.28;5047372;28;20104;-63
2023/01/20 02:00:58;;;;;;;53.83;28.03;;;;;;;-1.26;100.00;100996.63;5047528;28;20057;-63
2023/01/20 02:03:27;;;;;;;52.17;26.33;;;;;;;-1.24;100.00;100987.47;5047612;28;20448;-63
2023/01/20 02:05:53;;;;;;;50.90;25.63;;;;;;;-1.23;100.00;100988.38;5047630;28;20075;-63
2023/01/20 02:08:19;;;;;;;59.70;28.80;;;;;;;-1.22;100.00;100991.03;5047377;28;20036;-63
2023/01/20 02:10:44;;;;;;;53.60;27.63;;;;;;;-1.24;100.00;100992.56;5047359;28;20032;-63
2023/01/20 02:13:10;;;;;;;51.43;27.50;;;;;;;-1.25;100.00;100990.81;5048386;28;20103;-63
2023/01/20 02:15:54;;;;;;;55.43;28.57;;;;;;;-1.22;100.00;100985.97;5047295;28;20025;-63
2023/01/20 02:18:29;;;;;;;53.57;27.47;;;;;;;-1.19;100.00;100989.53;5047297;28;20035;-63
2023/01/20 02:21:16;;;;;;;49.87;26.40;;;;;;;-1.19;100.00;100995.50;5057177;28;20028;-63
2023/01/20 02:23:47;;;;;;;55.03;28.60;;;;;;;-1.17;100.00;100993.09;5049007;28;20370;-63
2023/01/20 02:26:46;;;;;;;59.40;29.07;;;;;;;-1.18;100.00;100996.38;5045101;28;20036;-63
2023/01/20 02:29:23;;;;;;;53.73;27.73;;;;;;;-1.17;100.00;100999.03;5047266;28;20083;-63
2023/01/20 02:32:06;;;;;;;51.90;25.03;;;;;;;-1.16;100.00;100999.94;5046714;28;20020;-63
2023/01/20 02:34:40;;;;;;;56.07;27.43;;;;;;;-1.16;100.00;101002.47;5046725;28;20453;-63
2023/01/20 02:37:13;;;;;;;55.67;27.53;;;;;;;-1.18;100.00;101004.00;5058678;28;20032;-63
2023/01/20 02:39:50;;;;;;;54.83;27.57;;;;;;;-1.18;100.00;101010.00;5051317;28;20441;-63
2023/01/20 02:42:23;;;;;;;56.83;28.70;;;;;;;-1.20;100.00;101014.06;5047065;28;20024;-63
2023/01/20 02:45:03;;;;;;;52.37;26.43;;;;;;;-1.18;100.00;101010.00;5047578;28;20025;-63
2023/01/20 02:47:43;;;;;;;57.30;27.57;;;;;;;-1.22;100.00;101016.47;5046731;28;20032;-63
2023/01/20 02:50:15;;;;;;;51.10;26.07;;;;;;;-1.22;100.00;101008.84;5046279;28;20189;-63
2023/01/20 02:52:44;;;;;;;50.60;26.43;;;;;;;-1.21;100.00;101008.06;5046753;28;20033;-63
2023/01/20 02:55:35;;;;;;;52.40;27.40;;;;;;;-1.23;100.00;101003.66;5047088;28;20036;-63
2023/01/20 02:58:05;;;;;;;48.57;23.93;;;;;;;-1.24;100.00;101020.53;5059209;28;20108;-63
2023/01/20 03:00:36;;;;;;;55.72;26.17;;;;;;;-1.25;100.00;101006.06;5046783;28;20295;-63
2023/01/20 03:03:07;;;;;;;50.67;25.55;;;;;;;-1.27;100.00;101017.75;5046291;28;20044;-63
2023/01/20 03:05:36;;;;;;;50.90;25.95;;;;;;;-1.27;100.00;101012.66;5047200;28;20029;-63
2023/01/20 03:08:06;;;;;;;47.33;23.73;;;;;;;-1.27;100.00;101007.59;5046751;28;20028;-63
2023/01/20 03:10:34;;;;;;;46.53;24.60;;;;;;;-1.25;100.00;101010.25;5047430;28;20016;-63
2023/01/20 03:13:12;;;;;;;50.40;24.23;;;;;;;-1.28;100.00;101007.47;5055124;28;20342;-63
2023/01/20 03:16:07;;;;;;;50.80;24.83;;;;;;;-1.31;100.00;101009.75;5047421;28;20251;-63
2023/01/20 03:18:33;;;;;;;44.37;23.97;;;;;;;-1.29;100.00;101013.28;5045727;28;20107;-63
2023/01/20 03:21:01;;;;;;;50.20;25.60;;;;;;;-1.29;100.00;101014.19;5055442;28;20013;-63
2023/01/20 03:23:32;;;;;;;48.87;25.40;;;;;;;-1.31;100.00;101015.72;5048092;28;20021;-63
2023/01/20 03:25:58;;;;;;;47.05;25.15;;;;;;;-1.30;100.00;101022.59;5061269;28;20016;-64
2023/01/20 03:28:23;;;;;;;51.53;24.33;;;;;;;-1.29;100.00;101028.56;5052581;28;20435;-63
2023/01/20 03:30:50;;;;;;;47.93;24.33;;;;;;;-1.26;100.00;101033.91;5046118;28;20013;-63
2023/01/20 03:33:16;;;;;;;50.20;24.07;;;;;;;-1.25;100.00;101036.59;5058397;28;20103;-63
2023/01/20 03:35:42;;;;;;;48.50;24.03;;;;;;;-1.25;100.00;101041.66;5046207;28;20582;-63
2023/01/20 03:38:08;;;;;;;51.67;24.87;;;;;;;-1.28;100.00;101036.34;5046575;28;20017;-63
2023/01/20 03:40:42;;;;;;;47.37;22.50;;;;;;;-1.33;100.00;101038.47;5046457;28;20111;-63
2023/01/20 03:43:18;;;;;;;47.70;24.83;;;;;;;-1.34;100.00;101028.19;5046276;28;20076;-63
2023/01/20 03:46:01;;;;;;;45.50;23.07;;;;;;;-1.33;100.00;101040.13;5046047;28;20033;-63
2023/01/20 03:48:45;;;;;;;54.53;24.97;;;;;;;-1.35;100.00;101039.13;5049850;28;20021;-63
2023/01/20 03:51:28;;;;;;;43.00;23.63;;;;;;;-1.37;100.00;101043.19;5050249;28;20041;-63
2023/01/20 03:54:08;;;;;;;49.23;24.57;;;;;;;-1.33;100.00;101037.56;5049501;28;20623;-63
2023/01/20 03:56:45;;;;;;;49.90;23.07;;;;;;;-1.34;100.00;101033.28;5050298;28;20033;-63
2023/01/20 03:59:13;;;;;;;49.70;24.73;;;;;;;-1.32;100.00;101039.38;5049615;28;20035;-63
2023/01/20 04:01:42;;;;;;;51.80;24.10;;;;;;;-1.30;100.00;101039.50;5050251;28;20465;-64
2023/01/20 04:04:15;;;;;;;48.50;24.83;;;;;;;-1.27;100.00;101045.72;5048234;28;20094;-63
2023/01/20 04:06:42;;;;;;;57.53;26.17;;;;;;;-1.27;100.00;101038.09;5049677;28;20112;-63
2023/01/20 04:09:12;;;;;;;50.33;25.87;;;;;;;-1.28;100.00;101031.25;5049842;28;20025;-63
2023/01/20 04:11:37;;;;;;;56.47;26.53;;;;;;;-1.27;100.00;101035.56;5049853;28;20024;-63
2023/01/20 04:14:03;;;;;;;57.37;28.33;;;;;;;-1.29;100.00;101034.53;5049458;28;20013;-63
2023/01/20 04:16:28;;;;;;;54.40;28.10;;;;;;;-1.27;100.00;101048.28;5050482;28;20025;-63
2023/01/20 04:18:54;;;;;;;53.60;26.90;;;;;;;-1.29;100.00;101042.16;5049676;28;20032;-63
2023/01/20 04:21:30;;;;;;;53.53;27.60;;;;;;;-1.28;100.00;101043.97;5061055;28;20460;-63
2023/01/20 04:24:13;;;;;;;59.73;27.20;;;;;;;-1.27;100.00;101043.19;5049526;28;20461;-63
2023/01/20 04:26:38;;;;;;;58.00;29.50;;;;;;;-1.28;100.00;101046.50;5049280;28;20021;-63
2023/01/20 04:29:07;;;;;;;54.30;29.37;;;;;;;-1.30;100.00;101048.03;5047552;28;20104;-63
2023/01/20 04:31:34;;;;;;;56.47;29.23;;;;;;;-1.28;100.00;101043.06;5051234;28;20028;-63
2023/01/20 04:33:59;;;;;;;60.60;29.03;;;;;;;-1.25;100.00;101050.94;5049292;28;20537;-64
2023/01/20 04:36:25;;;;;;;54.37;28.07;;;;;;;-1.27;100.00;101044.84;5048634;28;20029;-63
2023/01/20 04:38:50;;;;;;;56.03;28.00;;;;;;;-1.27;100.00;101053.38;5048837;28;20017;-63
2023/01/20 04:41:15;;;;;;;65.07;32.20;;;;;;;-1.27;100.00;101049.91;5048459;28;20094;-63
2023/01/20 04:43:43;;;;;;;61.47;31.17;;;;;;;-1.27;100.00;101053.38;5048458;28;20141;-63
2023/01/20 04:46:10;;;;;;;62.77;30.20;;;;;;;-1.26;100.00;101055.13;5048343;28;20523;-63
2023/01/20 04:48:36;;;;;;;52.80;29.33;;;;;;;-1.27;100.00;101053.38;5056452;28;20384;-63
2023/01/20 04:51:05;;;;;;;58.50;29.07;;;;;;;-1.29;100.00;101059.06;5052582;28;20041;-63
2023/01/20 04:53:30;;;;;;;48.03;26.63;;;;;;;-1.30;100.00;101059.84;5048254;28;20028;-63
2023/01/20 04:55:56;;;;;;;54.20;27.30;;;;;;;-1.35;100.00;101060.34;5048495;28;20377;-63
2023/01/20 04:58:21;;;;;;;55.97;26.87;;;;;;;-1.33;100.00;101068.09;5051429;28;20031;-63
2023/01/20 05:00:46;;;;;;;45.33;25.17;;;;;;;-1.37;100.00;101071.16;5048888;28;20028;-63
2023/01/20 05:03:12;;;;;;;53.03;27.90;;;;;;;-1.36;100.00;101070.38;5048779;28;20396;-63
2023/01/20 05:05:37;;;;;;;55.07;27.30;;;;;;;-1.35;100.00;101073.06;5048160;28;20220;-63
2023/01/20 05:08:03;;;;;;;51.60;27.00;;;;;;;-1.36;100.00;101067.84;5049521;28;20074;-63
2023/01/20 05:10:30;;;;;;;48.83;26.03;;;;;;;-1.40;100.00;101061.63;5048436;28;20358;-63
2023/01/20 05:12:56;;;;;;;55.47;25.80;;;;;;;-1.40;100.00;101070.91;5048320;28;20028;-63
2023/01/20 05:15:21;;;;;;;58.63;28.93;;;;;;;-1.41;100.00;101064.03;5048300;28;20172;-63
2023/01/20 05:17:46;;;;;;;47.80;26.13;;;;;;;-1.41;100.00;101064.03;5048460;28;20024;-63
2023/01/20 05:20:13;;;;;;;46.97;24.77;;;;;;;-1.38;100.00;101066.81;5050712;28;20457;-63
2023/01/20 05:22:38;;;;;;;55.27;27.23;;;;;;;-1.38;100.00;101074.44;5059235;28;20021;-63
2023/01/20 05:25:04;;;;;;;49.60;24.87;;;;;;;-1.41;100.00;101076.75;5048083;28;20086;-63
2023/01/20 05:27:29;;;;;;;50.90;27.07;;;;;;;-1.40;100.00;101081.94;5049250;28;20381;-63
2023/01/20 05:29:54;;;;;;;45.77;24.83;;;;;;;-1.40;100.00;101086.16;5048236;28;20111;-63
2023/01/20 05:32:20;;;;;;;52.80;27.17;;;;;;;-1.37;100.00;101088.97;5048004;28;20393;-63
2023/01/20 05:34:45;;;;;;;60.07;28.13;;;;;;;-1.38;100.00;101084.63;5047426;28;20322;-63
2023/01/20 05:37:10;;;;;;;55.30;26.77;;;;;;;-1.40;100.00;101086.16;5048272;28;20049;-63
2023/01/20 05:39:35;;;;;;;46.87;25.00;;;;;;;-1.42;100.00;101090.22;5047988;28;20522;-63
2023/01/20 05:42:01;;;;;;;51.40;25.63;;;;;;;-1.39;100.00;101080.31;5056498;28;20021;-63
2023/01/20 05:44:26;;;;;;;46.37;23.53;;;;;;;-1.41;100.00;101094.53;5047406;28;20050;-63
2023/01/20 05:46:52;;;;;;;52.80;27.13;;;;;;;-1.43;100.00;101081.69;5047440;28;20021;-63
2023/01/20 05:49:17;;;;;;;46.17;25.67;;;;;;;-1.43;100.00;101080.81;5054320;28;20032;-63
2023/01/20 05:51:42;;;;;;;55.10;25.20;;;;;;;-1.41;100.00;101086.91;5060529;28;20105;-63
2023/01/20 05:54:08;;;;;;;52.93;25.30;;;;;;;-1.41;100.00;101086.91;5060918;28;20550;-63
2023/01/20 05:56:33;;;;;;;51.63;25.50;;;;;;;-1.42;100.00;101082.59;5057682;28;20020;-63
2023/01/20 05:58:59;;;;;;;55.57;25.83;;;;;;;-1.40;100.00;101088.72;5055169;28;20041;-63
2023/01/20 06:01:24;;;;;;;52.37;25.97;;;;;;;-1.41;100.00;101089.47;5056577;28;20020;-63
2023/01/20 06:03:49;;;;;;;50.77;25.77;;;;;;;-1.41;100.00;101087.81;5047599;28;20032;-63
2023/01/20 06:06:17;;;;;;;45.63;25.27;;;;;;;-1.41;100.00;101089.47;5048409;28;20461;-63
2023/01/20 06:08:43;;;;;;;49.70;25.13;;;;;;;-1.40;100.00;101091.25;5046759;28;20029;-63
2023/01/20 06:11:08;;;;;;;55.47;24.97;;;;;;;-1.40;100.00;101096.34;5058584;28;20420;-63
2023/01/20 06:13:34;;;;;;;50.23;25.23;;;;;;;-1.39;100.00;101095.56;5051274;28;20040;-63
2023/01/20 06:16:00;;;;;;;54.07;26.10;;;;;;;-1.39;100.00;101093.94;5046602;28;20032;-63
2023/01/20 06:18:26;;;;;;;49.37;25.20;;;;;;;-1.39;100.00;101108.28;5055418;28;20111;-63
2023/01/20 06:20:55;;;;;;;50.27;23.87;;;;;;;-1.38;100.00;101110.06;5049729;28;20062;-63
2023/01/20 06:23:20;;;;;;;48.90;25.50;;;;;;;-1.37;100.00;101102.53;5051567;28;20028;-63
2023/01/20 06:25:46;;;;;;;50.93;24.97;;;;;;;-1.33;100.00;101109.69;5046104;28;20028;-63
2023/01/20 06:28:11;;;;;;;45.57;23.70;;;;;;;-1.31;100.00;101102.19;5050742;28;20520;-63
2023/01/20 06:30:37;;;;;;;48.33;24.47;;;;;;;-1.30;100.00;101103.97;5049327;28;20024;-63
2023/01/20 06:33:07;;;;;;;42.83;23.27;;;;;;;-1.29;100.00;101103.22;5049499;28;20025;-63
2023/01/20 06:35:32;;;;;;;43.10;21.30;;;;;;;-1.28;100.00;101110.09;5052298;28;20242;-63
2023/01/20 06:37:58;;;;;;;46.37;23.97;;;;;;;-1.30;100.00;101098.91;5050793;28;20393;-63
2023/01/20 06:40:23;;;;;;;42.80;24.50;;;;;;;-1.30;100.00;101105.63;5053039;28;20078;-63
2023/01/20 06:42:48;;;;;;;48.07;24.47;;;;;;;-1.27;100.00;101109.31;5049084;28;20028;-63
2023/01/20 06:45:15;;;;;;;44.87;23.90;;;;;;;-1.30;100.00;101109.06;5050197;28;20039;-63
2023/01/20 06:47:41;;;;;;;48.30;24.00;;;;;;;-1.30;100.00;101100.53;5048182;28;20366;-63
2023/01/20 06:50:06;;;;;;;46.73;24.50;;;;;;;-1.25;100.00;101100.16;5049485;28;20024;-63
2023/01/20 06:52:32;;;;;;;44.07;24.77;;;;;;;-1.27;100.00;101093.16;5049893;28;20464;-63
2023/01/20 06:54:57;;;;;;;45.77;23.70;;;;;;;-1.25;100.00;101101.81;5048393;28;20517;-63
2023/01/20 06:57:22;;;;;;;47.00;24.30;;;;;;;-1.27;100.00;101109.31;5045635;28;20032;-63
2023/01/20 06:59:48;;;;;;;44.80;22.67;;;;;;;-1.26;100.00;101106.00;5049574;28;20047;-63
2023/01/20 07:02:13;;;;;;;41.63;22.50;;;;;;;-1.25;100.00;101112.88;5047708;28;20025;-63
2023/01/20 07:04:38;;;;;;;49.90;24.57;;;;;;;-1.25;100.00;101107.81;5051012;28;20056;-63
2023/01/20 07:07:04;;;;;;;43.27;23.23;;;;;;;-1.24;100.00;101104.47;5045060;28;20045;-63
2023/01/20 07:09:29;;;;;;;44.70;24.27;;;;;;;-1.21;100.00;101108.94;5051248;28;20036;-63
2023/01/20 07:11:54;;;;;;;41.27;22.47;;;;;;;-1.21;100.00;101102.19;5048955;28;20032;-63
2023/01/20 07:14:20;;;;;;;48.83;22.33;;;;;;;-1.22;100.00;101104.59;5046404;28;20458;-63
2023/01/20 07:16:45;;;;;;;43.07;22.07;;;;;;;-1.22;100.00;101107.16;5047572;28;20033;-63
2023/01/20 07:19:11;;;;;;;42.23;23.63;;;;;;;-1.19;100.00;101109.06;5048072;28;20029;-63
2023/01/20 07:21:36;;;;;;;45.70;23.03;;;;;;;-1.18;100.00;101123.56;5053814;28;20025;-63
2023/01/20 07:24:01;;;;;;;46.23;24.53;;;;;;;-1.21;100.00;101124.22;5048666;28;20031;-63
2023/01/20 07:26:27;;;;;;;42.70;24.03;;;;;;;-1.20;100.00;101120.91;5049221;28;20033;-63
2023/01/20 07:28:52;;;;;;;49.80;23.77;;;;;;;-1.21;100.00;101124.22;5049857;28;20029;-63
2023/01/20 07:31:21;;;;;;;40.03;22.83;;;;;;;-1.22;100.00;101119.88;5050659;28;20533;-63
2023/01/20 07:33:47;;;;;;;44.13;25.17;;;;;;;-1.24;100.00;101118.88;5051952;28;20048;-63
2023/01/20 07:36:14;;;;;;;42.57;23.83;;;;;;;-1.21;100.00;101129.31;5049636;28;20155;-63
2023/01/20 07:38:39;;;;;;;41.73;22.73;;;;;;;-1.19;100.00;101137.06;5049660;28;20082;-63
2023/01/20 07:41:09;;;;;;;43.37;23.77;;;;;;;-1.18;100.00;101139.72;5049943;28;20024;-63
2023/01/20 07:43:35;;;;;;;46.13;25.30;;;;;;;-1.20;100.00;101146.34;5050266;28;20117;-63
2023/01/20 07:46:02;;;;;;;43.80;23.87;;;;;;;-1.17;100.00;101145.72;5047920;28;20016;-63
2023/01/20 07:48:30;;;;;;;45.37;22.70;;;;;;;-1.17;100.00;101145.72;5051402;28;20067;-64
2023/01/20 07:51:01;;;;;;;45.10;23.47;;;;;;;-1.17;100.00;101148.25;5051898;28;20052;-63
2023/01/20 07:53:29;;;;;;;43.95;23.60;;;;;;;-1.14;100.00;101146.88;5052531;28;20462;-63
2023/01/20 07:55:55;;;;;;;41.97;22.80;;;;;;;-1.13;100.00;101155.38;5050153;28;20044;-63
2023/01/20 07:58:20;;;;;;;42.47;23.27;;;;;;;-1.11;100.00;101151.31;5050484;28;20385;-63
2023/01/20 08:00:48;;;;;;;49.10;25.47;;;;;;;-1.11;100.00;101156.38;5049668;28;20503;-63
2023/01/20 08:03:15;;;;;;;45.50;24.53;;;;;;;-1.11;100.00;101152.19;5050137;28;20047;-63
2023/01/20 08:05:40;;;;;;;44.60;24.20;;;;;;;-1.10;100.00;101153.09;5052437;28;20040;-63
2023/01/20 08:08:05;;;;;;;45.77;24.93;;;;;;;-1.10;100.00;101153.97;5051643;28;20021;-63
2023/01/20 08:10:30;;;;;;;47.70;24.00;;;;;;;-1.09;100.00;101159.97;5051463;28;20058;-63
2023/01/20 08:12:56;;;;;;;48.10;25.30;;;;;;;-1.08;100.00;101149.03;5051380;28;20381;-63
2023/01/20 08:15:22;;;;;;;44.97;24.00;;;;;;;-1.07;100.00;101152.44;5053097;28;20024;-63
2023/01/20 08:17:52;;;;;;;48.43;24.97;;;;;;;-1.09;100.00;101158.31;5049681;28;20024;-63
2023/01/20 08:20:17;;;;;;;44.93;24.80;;;;;;;-1.07;100.00;101158.44;5048755;28;20032;-63
2023/01/20 08:22:42;;;;;;;48.23;25.73;;;;;;;-1.08;100.00;101154.13;5048809;28;20021;-63
2023/01/20 08:25:08;;;;;;;49.10;25.57;;;;;;;-1.09;100.00;101159.97;5048164;28;20031;-63
2023/01/20 08:27:33;;;;;;;43.00;22.77;;;;;;;-1.10;100.00;101165.81;5050899;28;20021;-63
2023/01/20 08:29:58;;;;;;;44.17;24.07;;;;;;;-1.11;100.00;101157.28;5051993;28;20020;-63
2023/01/20 08:32:24;;;;;;;42.83;23.37;;;;;;;-1.06;100.00;101159.34;5054077;28;20040;-63
2023/01/20 08:34:49;;;;;;;43.23;21.90;;;;;;;-1.11;100.00;101157.28;5052285;28;20054;-63
2023/01/20 08:37:14;;;;;;;41.63;21.67;;;;;;;-1.11;100.00;101157.28;5048085;28;20501;-63
2023/01/20 08:39:39;;;;;;;42.63;21.10;;;;;;;-1.13;100.00;101166.44;5049795;28;20025;-63
2023/01/20 08:42:05;;;;;;;38.37;21.60;;;;;;;-1.15;100.00;101159.47;5059605;28;20025;-63
2023/01/20 08:44:30;;;;;;;35.73;20.63;;;;;;;-1.15;100.00;101157.78;5053147;28;20081;-63
2023/01/20 08:46:58;;;;;;;36.73;20.87;;;;;;;-1.15;100.00;101164.53;5058899;28;20032;-63
2023/01/20 08:49:24;;;;;;;37.73;20.33;;;;;;;-1.16;100.00;101162.75;5049504;28;20362;-63
2023/01/20 08:51:49;;;;;;;38.07;22.23;;;;;;;-1.19;100.00;101168.47;5057049;28;20036;-63
2023/01/20 08:54:15;;;;;;;36.77;21.33;;;;;;;-1.18;100.00;101174.44;5053160;28;20453;-63
2023/01/20 08:56:40;;;;;;;38.33;19.87;;;;;;;-1.18;100.00;101176.97;5048404;28;20039;-63
2023/01/20 08:59:06;;;;;;;38.37;21.27;;;;;;;-1.18;100.00;101174.44;5055126;28;20111;-63
2023/01/20 09:01:34;;;;;;;38.00;20.87;;;;;;;-1.20;100.00;101176.84;5047900;28;20452;-63
2023/01/20 09:04:00;;;;;;;34.27;19.87;;;;;;;-1.16;100.00;101178.00;5054660;28;20036;-63
2023/01/20 09:06:26;;;;;;;35.57;19.40;;;;;;;-1.16;100.00;101183.09;5051432;28;20541;-63
2023/01/20 09:08:52;;;;;;;38.33;20.57;;;;;;;-1.15;100.00;101190.84;5057810;28;20111;-63
2023/01/20 09:11:20;;;;;;;38.07;21.27;;;;;;;-1.13;100.00;101193.53;5052202;28;20013;-63
2023/01/20 09:13:46;;;;;;;37.13;20.33;;;;;;;-1.14;100.00;101191.75;5049226;28;20498;-63
2023/01/20 09:16:13;;;;;;;35.87;21.83;;;;;;;-1.14;100.00;101187.56;5058567;28;20036;-63
2023/01/20 09:18:39;;;;;;;35.30;20.43;;;;;;;-1.13;100.00;101193.53;5047297;28;20292;-63
2023/01/20 09:21:07;;;;;;;36.17;20.83;;;;;;;-1.14;100.00;101192.66;5053719;28;20036;-63
2023/01/20 09:23:35;;;;;;;36.67;20.97;;;;;;;-1.13;100.00;101194.44;5049191;28;20061;-63
2023/01/20 09:26:03;;;;;;;34.63;21.13;;;;;;;-1.11;100.00;101190.38;5055012;28;20025;-63
2023/01/20 09:28:29;;;;;;;34.60;20.27;;;;;;;-1.14;100.00;101186.66;5051466;28;20025;-63
2023/01/20 09:30:58;;;;;;;34.73;21.07;;;;;;;-1.15;100.00;101193.41;5049130;28;20049;-63
2023/01/20 09:33:24;;;;;;;34.50;21.20;;;;;;;-1.15;100.00;101197.63;5048134;28;20035;-63
2023/01/20 09:35:56;;;;;;;36.57;21.53;;;;;;;-1.13;100.00;101198.59;5059403;28;20029;-63
2023/01/20 09:44:12;;;;;;;32.33;19.13;;;;;;;-1.13;100.00;101199.50;5047961;28;20535;-63
2023/01/20 09:47:18;;;;;;;33.43;20.00;;;;;;;-1.11;100.00;101189.47;5050081;28;20021;-63
2023/01/20 09:55:37;;;;;;;34.27;20.73;;;;;;;-1.05;100.00;101202.72;5054430;28;20121;-64
2023/01/20 09:58:21;;;;;;;35.03;20.50;;;;;;;-1.02;100.00;101196.97;5050765;28;20599;-64
2023/01/20 10:00:54;;;;;;;34.17;20.17;;;;;;;-0.99;100.00;101200.69;5050028;28;20037;-64
2023/01/20 10:03:36;;;;;;;31.83;20.00;;;;;;;-1.00;100.00;101193.81;5047390;28;20025;-64
2023/01/20 10:06:08;;;;;;;31.80;20.00;;;;;;;-1.00;100.00;101191.28;5052083;28;20465;-64
2023/01/20 10:08:50;;;;;;;31.00;18.93;;;;;;;-1.02;100.00;101197.88;5054689;28;20480;-64
2023/01/20 10:11:18;;;;;;;32.27;19.13;;;;;;;-1.02;100.00;101192.78;5049171;28;20095;-64
2023/01/20 10:14:02;;;;;;;30.77;18.30;;;;;;;-1.01;100.00;101193.69;5047066;28;20106;-64
2023/01/20 10:16:36;;;;;;;30.57;18.27;;;;;;;-1.04;100.00;101188.34;5047415;28;20028;-64
2023/01/20 10:19:16;;;;;;;29.37;17.57;;;;;;;-1.05;100.00;101191.66;5046449;28;20114;-64
2023/01/20 10:21:53;;;;;;;27.70;18.70;;;;;;;-1.06;100.00;101189.88;5046601;28;20024;-64
2023/01/20 10:24:27;;;;;;;25.63;17.00;;;;;;;-1.04;100.00;101189.22;5046931;28;20559;-64
2023/01/20 10:26:59;;;;;;;22.93;15.73;;;;;;;-1.04;100.00;101194.31;5046704;28;20402;-64
2023/01/20 10:29:37;;;;;;;26.20;16.83;;;;;;;-1.07;100.00;101198.25;5051915;28;20511;-64
2023/01/20 10:32:12;;;;;;;26.37;16.60;;;;;;;-1.06;100.00;101198.38;5050253;28;20564;-64
2023/01/20 10:34:46;;;;;;;25.37;15.77;;;;;;;-1.07;100.00;101198.25;5045629;28;20078;-64
2023/01/20 10:37:14;;;;;;;25.47;17.20;;;;;;;-1.10;100.00;101194.69;5045465;28;20119;-64
2023/01/20 10:39:51;;;;;;;24.37;16.47;;;;;;;-1.11;100.00;101187.81;5046036;28;20039;-64
2023/01/20 10:42:17;;;;;;;21.77;14.97;;;;;;;-1.09;100.00;101196.47;5048329;28;20128;-64
2023/01/20 10:44:44;;;;;;;25.47;16.40;;;;;;;-1.11;100.00;101199.63;5047228;28;20108;-64
2023/01/20 10:47:31;;;;;;;25.57;16.07;;;;;;;-1.15;100.00;101190.00;5045961;28;20055;-64
2023/01/20 10:50:11;;;;;;;23.90;16.07;;;;;;;-1.15;100.00;101190.00;5058118;28;20495;-64
2023/01/20 10:53:02;;;;;;;23.73;15.27;;;;;;;-1.15;100.00;101190.00;5046740;28;20068;-64
2023/01/20 10:56:00;;;;;;;20.85;15.07;;;;;;;-1.15;100.00;101190.84;5046574;28;20063;-64
2023/01/20 10:58:31;;;;;;;21.03;15.20;;;;;;;-1.13;100.00;101185.88;5043317;28;20045;-64
2023/01/20 11:01:02;;;;;;;20.35;13.32;;;;;;;-1.15;100.00;101190.00;5049129;28;20032;-64
2023/01/20 11:03:33;;;;;;;22.60;14.60;;;;;;;-1.11;100.00;101192.00;5049106;28;20052;-64
2023/01/20 11:05:59;;;;;;;19.98;14.68;;;;;;;-1.12;100.00;101190.25;5048860;28;20024;-64
2023/01/20 11:08:29;;;;;;;21.00;14.20;;;;;;;-1.11;100.00;101197.09;5062446;28;20025;-64
2023/01/20 11:11:14;;;;;;;22.00;15.00;;;;;;;-1.10;100.00;101197.22;5049231;28;20052;-64
2023/01/20 11:13:40;;;;;;;21.80;14.40;;;;;;;-1.09;100.00;101191.38;5047873;28;20017;-64
2023/01/20 11:16:15;;;;;;;19.93;13.80;;;;;;;-1.08;100.00;101187.22;5051149;28;20017;-64
2023/01/20 11:18:40;;;;;;;19.80;14.53;;;;;;;-1.05;100.00;101200.19;5050989;28;20021;-64
2023/01/20 11:21:10;;;;;;;22.77;14.93;;;;;;;-1.06;100.00;101203.47;5060117;28;20025;-64